createdAt,value
2022-09-27T00:00:15.082Z,15.70
2022-09-27T00:02:42.152Z,15.70
2022-09-27T00:05:09.295Z,15.69
2022-09-27T00:07:36.230Z,15.68
2022-09-27T00:10:03.948Z,15.65
2022-09-27T00:12:30.885Z,15.66
2022-09-27T00:14:57.867Z,15.63
2022-09-27T00:17:24.699Z,15.61
2022-09-27T00:19:51.584Z,15.61
2022-09-27T00:22:18.519Z,15.62
2022-09-27T00:24:45.389Z,15.60
2022-09-27T00:27:12.261Z,15.60
2022-09-27T00:29:39.224Z,15.61
2022-09-27T00:32:06.294Z,15.59
2022-09-27T00:34:33.159Z,15.57
2022-09-27T00:37:00.107Z,15.56
2022-09-27T00:39:27.286Z,15.55
2022-09-27T00:41:54.835Z,15.54
2022-09-27T00:44:28.811Z,15.54
2022-09-27T00:47:27.597Z,15.53
2022-09-27T00:50:00.518Z,15.51
2022-09-27T00:52:39.355Z,15.50
2022-09-27T00:55:15.882Z,15.49
2022-09-27T00:57:44.919Z,15.48
2022-09-27T01:00:13.599Z,15.49
2022-09-27T01:02:47.588Z,15.47
2022-09-27T01:05:17.832Z,15.46
2022-09-27T01:07:44.718Z,15.46
2022-09-27T01:10:13.261Z,15.45
2022-09-27T01:12:48.565Z,15.44
2022-09-27T01:15:33.803Z,15.42
2022-09-27T01:18:19.113Z,15.39
2022-09-27T01:21:23.246Z,15.40
2022-09-27T01:24:08.900Z,15.40
2022-09-27T01:26:35.763Z,15.38
2022-09-27T01:29:34.629Z,15.38
2022-09-27T01:32:47.901Z,15.34
2022-09-27T01:35:27.537Z,15.34
2022-09-27T01:38:34.674Z,15.35
2022-09-27T01:41:11.110Z,15.32
2022-09-27T01:43:50.665Z,15.34
2022-09-27T01:46:46.800Z,15.32
2022-09-27T01:49:23.306Z,15.29
2022-09-27T01:51:59.188Z,15.31
2022-09-27T01:54:34.297Z,15.28
2022-09-27T01:57:03.509Z,15.30
2022-09-27T01:59:59.669Z,15.28
2022-09-27T02:02:29.232Z,15.28
2022-09-27T02:05:00.506Z,15.28
2022-09-27T02:07:34.589Z,15.25
2022-09-27T02:10:18.429Z,15.24
2022-09-27T02:12:57.654Z,15.24
2022-09-27T02:15:26.935Z,15.25
2022-09-27T02:18:05.769Z,15.22
2022-09-27T02:20:40.493Z,15.19
2022-09-27T02:23:33.458Z,15.22
2022-09-27T02:26:05.344Z,15.19
2022-09-27T02:29:00.365Z,15.17
2022-09-27T02:31:27.334Z,15.18
2022-09-27T02:34:02.939Z,15.17
2022-09-27T02:36:30.673Z,15.17
2022-09-27T02:38:57.547Z,15.15
2022-09-27T02:41:24.457Z,15.16
2022-09-27T02:43:57.455Z,15.16
2022-09-27T02:46:35.425Z,15.15
2022-09-27T02:49:26.533Z,15.14
2022-09-27T02:52:02.142Z,15.14
2022-09-27T02:54:46.907Z,15.11
2022-09-27T02:57:32.443Z,15.09
2022-09-27T02:59:59.263Z,15.09
2022-09-27T03:02:46.364Z,15.07
2022-09-27T03:05:25.551Z,15.10
2022-09-27T03:07:52.514Z,15.09
2022-09-27T03:10:27.137Z,15.07
2022-09-27T03:12:54.764Z,15.08
2022-09-27T03:15:21.609Z,15.07
2022-09-27T03:17:48.503Z,15.07
2022-09-27T03:20:15.388Z,15.07
2022-09-27T03:22:42.577Z,15.05
2022-09-27T03:25:09.962Z,15.00
2022-09-27T03:27:36.866Z,15.05
2022-09-27T03:30:04.545Z,15.03
2022-09-27T03:32:31.809Z,15.05
2022-09-27T03:34:58.643Z,15.01
2022-09-27T03:37:27.324Z,15.01
2022-09-27T03:39:54.182Z,15.03
2022-09-27T03:42:21.005Z,15.02
2022-09-27T03:44:47.901Z,15.02
2022-09-27T03:47:14.750Z,15.01
2022-09-27T03:49:41.636Z,15.01
2022-09-27T03:52:08.488Z,14.98
2022-09-27T03:54:35.342Z,15.00
2022-09-27T03:57:02.216Z,15.00
2022-09-27T03:59:29.274Z,15.00
2022-09-27T04:01:56.606Z,14.97
2022-09-27T04:04:24.057Z,14.96
2022-09-27T04:06:50.979Z,14.97
2022-09-27T04:09:17.895Z,14.98
2022-09-27T04:11:44.800Z,14.97
2022-09-27T04:14:13.252Z,14.98
2022-09-27T04:16:42.810Z,14.96
2022-09-27T04:19:09.770Z,14.97
2022-09-27T04:21:37.133Z,14.96
2022-09-27T04:24:05.619Z,14.96
2022-09-27T04:26:32.529Z,14.95
2022-09-27T04:28:59.507Z,14.94
2022-09-27T04:31:26.535Z,14.94
2022-09-27T04:33:54.932Z,14.94
2022-09-27T04:36:29.076Z,14.93
2022-09-27T04:38:57.778Z,14.93
2022-09-27T04:41:25.825Z,14.94
2022-09-27T04:43:58.243Z,14.93
2022-09-27T04:46:26.516Z,14.91
2022-09-27T04:48:53.583Z,14.90
2022-09-27T04:51:20.511Z,14.92
2022-09-27T04:53:48.249Z,14.92
2022-09-27T04:56:16.170Z,14.92
2022-09-27T04:58:43.072Z,14.90
2022-09-27T05:01:10.363Z,14.90
2022-09-27T05:03:37.859Z,14.93
2022-09-27T05:06:04.977Z,14.92
2022-09-27T05:08:31.950Z,14.91
2022-09-27T05:10:58.811Z,14.87
2022-09-27T05:13:25.780Z,14.86
2022-09-27T05:15:53.175Z,14.87
2022-09-27T05:18:20.049Z,14.90
2022-09-27T05:20:47.005Z,14.92
2022-09-27T05:23:14.100Z,14.94
2022-09-27T05:25:42.683Z,14.96
2022-09-27T05:28:09.784Z,15.00
2022-09-27T05:30:37.016Z,15.00
2022-09-27T05:33:04.196Z,15.01
2022-09-27T05:35:32.023Z,15.03
2022-09-27T05:38:00.595Z,15.05
2022-09-27T05:40:44.887Z,15.07
2022-09-27T05:43:11.971Z,15.09
2022-09-27T05:45:38.925Z,15.10
2022-09-27T05:48:05.941Z,15.09
2022-09-27T05:50:32.990Z,15.12
2022-09-27T05:52:59.891Z,15.12
2022-09-27T05:55:26.907Z,15.10
2022-09-27T05:58:02.585Z,15.11
2022-09-27T06:00:29.909Z,15.12
2022-09-27T06:02:59.144Z,15.10
2022-09-27T06:05:28.361Z,15.11
2022-09-27T06:08:01.096Z,15.12
2022-09-27T06:10:29.279Z,15.12
2022-09-27T06:13:03.448Z,15.13
2022-09-27T06:15:32.372Z,15.13
2022-09-27T06:18:05.499Z,15.14
2022-09-27T06:20:33.193Z,15.15
2022-09-27T06:23:12.948Z,15.18
2022-09-27T06:25:40.870Z,15.18
2022-09-27T06:28:10.364Z,15.21
2022-09-27T06:30:43.002Z,15.13
2022-09-27T06:33:13.416Z,15.06
2022-09-27T06:35:42.917Z,15.05
2022-09-27T06:38:12.675Z,15.04
2022-09-27T06:40:40.093Z,15.02
2022-09-27T06:43:09.592Z,15.02
2022-09-27T06:45:37.699Z,15.00
2022-09-27T06:48:05.942Z,15.01
2022-09-27T06:50:37.990Z,15.04
2022-09-27T06:53:06.763Z,15.03
2022-09-27T06:55:34.364Z,15.03
2022-09-27T06:58:20.707Z,15.06
2022-09-27T07:00:54.365Z,15.07
2022-09-27T07:03:36.495Z,15.08
2022-09-27T07:06:06.648Z,15.10
2022-09-27T07:08:34.435Z,15.11
2022-09-27T07:11:03.955Z,15.13
2022-09-27T07:13:34.704Z,15.14
2022-09-27T07:16:02.284Z,15.14
2022-09-27T07:18:29.516Z,15.15
2022-09-27T07:21:00.096Z,15.16
2022-09-27T07:23:27.863Z,15.17
2022-09-27T07:25:55.006Z,15.17
2022-09-27T07:28:22.551Z,15.18
2022-09-27T07:30:50.121Z,15.19
2022-09-27T07:33:17.242Z,15.19
2022-09-27T07:35:44.462Z,15.17
2022-09-27T07:38:14.310Z,15.21
2022-09-27T07:40:42.164Z,15.21
2022-09-27T07:43:12.635Z,15.23
2022-09-27T07:45:39.867Z,15.23
2022-09-27T07:48:08.149Z,15.22
2022-09-27T07:50:35.574Z,15.24
2022-09-27T07:53:02.687Z,15.26
2022-09-27T07:55:29.784Z,15.25
2022-09-27T07:58:04.714Z,15.26
2022-09-27T08:00:31.637Z,15.27
2022-09-27T08:02:58.659Z,15.25
2022-09-27T08:05:25.865Z,15.28
2022-09-27T08:07:59.054Z,15.28
2022-09-27T08:10:31.686Z,15.28
2022-09-27T08:13:01.354Z,15.31
2022-09-27T08:15:28.899Z,15.34
2022-09-27T08:17:56.013Z,15.35
2022-09-27T08:20:23.219Z,15.36
2022-09-27T08:22:50.222Z,15.36
2022-09-27T08:25:17.980Z,15.35
2022-09-27T08:27:45.259Z,15.35
2022-09-27T08:30:12.436Z,15.37
2022-09-27T08:32:39.536Z,15.37
2022-09-27T08:35:07.705Z,15.39
2022-09-27T08:37:35.650Z,15.42
2022-09-27T08:40:03.518Z,15.42
2022-09-27T08:42:51.299Z,15.43
2022-09-27T08:45:33.147Z,15.43
2022-09-27T08:48:03.323Z,15.45
2022-09-27T08:50:41.896Z,15.45
2022-09-27T08:53:14.951Z,15.43
2022-09-27T08:55:45.880Z,15.42
2022-09-27T08:58:20.292Z,15.41
2022-09-27T09:00:52.195Z,15.42
2022-09-27T09:03:21.573Z,15.39
2022-09-27T09:06:03.792Z,15.41
2022-09-27T09:08:35.637Z,15.41
2022-09-27T09:12:02.553Z,15.41
2022-09-27T09:14:48.717Z,15.39
2022-09-27T09:17:50.974Z,15.37
2022-09-27T09:20:53.237Z,15.37
2022-09-27T09:23:37.026Z,15.37
2022-09-27T09:26:12.876Z,15.36
2022-09-27T09:29:10.389Z,15.36
2022-09-27T09:31:48.053Z,15.37
2022-09-27T09:34:26.345Z,15.36
2022-09-27T09:37:19.354Z,15.31
2022-09-27T09:39:51.971Z,15.32
2022-09-27T09:42:28.421Z,15.34
2022-09-27T09:45:04.341Z,15.40
2022-09-27T09:47:39.962Z,15.43
2022-09-27T09:50:18.759Z,15.45
2022-09-27T09:52:52.080Z,15.47
2022-09-27T09:55:35.441Z,15.50
2022-09-27T09:58:19.673Z,15.49
2022-09-27T10:00:51.208Z,15.46
2022-09-27T10:03:18.669Z,15.44
2022-09-27T10:05:46.784Z,15.42
2022-09-27T10:08:19.701Z,15.46
2022-09-27T10:10:46.872Z,15.49
2022-09-27T10:13:22.651Z,15.49
2022-09-27T10:16:02.857Z,15.52
2022-09-27T10:18:30.509Z,15.54
2022-09-27T10:21:02.470Z,15.58
2022-09-27T10:23:30.442Z,15.57
2022-09-27T10:26:03.885Z,15.60
2022-09-27T10:28:40.090Z,15.64
2022-09-27T10:31:13.976Z,15.63
2022-09-27T10:33:55.276Z,15.66
2022-09-27T10:36:26.856Z,15.66
2022-09-27T10:38:58.872Z,15.66
2022-09-27T10:41:38.854Z,15.64
2022-09-27T10:44:21.019Z,15.65
2022-09-27T10:46:57.075Z,15.62
2022-09-27T10:49:28.965Z,15.65
2022-09-27T10:51:59.477Z,15.64
2022-09-27T10:54:29.709Z,15.61
2022-09-27T10:57:06.839Z,15.66
2022-09-27T10:59:39.910Z,15.67
2022-09-27T11:02:20.302Z,15.65
2022-09-27T11:05:15.268Z,15.65
2022-09-27T11:07:53.194Z,15.67
2022-09-27T11:10:36.936Z,15.65
2022-09-27T11:13:15.206Z,15.68
2022-09-27T11:15:54.286Z,15.67
2022-09-27T11:18:42.736Z,15.69
2022-09-27T11:21:28.076Z,15.71
2022-09-27T11:23:58.091Z,15.73
2022-09-27T11:26:50.645Z,15.73
2022-09-27T11:30:02.298Z,15.76
2022-09-27T11:32:39.937Z,15.79
2022-09-27T11:35:42.489Z,15.79
2022-09-27T11:38:51.538Z,15.81
2022-09-27T11:41:39.241Z,15.83
2022-09-27T11:44:26.351Z,15.85
2022-09-27T11:47:27.559Z,15.89
2022-09-27T11:50:36.089Z,15.90
2022-09-27T11:53:27.896Z,15.91
2022-09-27T11:56:37.837Z,15.93
2022-09-27T11:59:29.578Z,15.91
2022-09-27T12:02:02.645Z,15.95
2022-09-27T12:04:44.826Z,15.96
2022-09-27T12:07:33.274Z,15.95
2022-09-27T12:10:10.051Z,15.95
2022-09-27T12:12:41.730Z,15.98
2022-09-27T12:15:22.060Z,16.00
2022-09-27T12:17:56.923Z,16.04
2022-09-27T12:20:28.068Z,16.03
2022-09-27T12:22:59.604Z,16.02
2022-09-27T12:25:32.484Z,16.00
2022-09-27T12:28:18.592Z,15.98
2022-09-27T12:31:11.052Z,15.99
2022-09-27T12:33:52.312Z,15.98
2022-09-27T12:36:26.217Z,15.99
2022-09-27T12:39:02.601Z,15.98
2022-09-27T12:41:36.721Z,15.99
2022-09-27T12:44:03.838Z,16.01
2022-09-27T12:46:42.814Z,16.03
2022-09-27T12:49:38.835Z,16.05
2022-09-27T12:52:12.334Z,16.10
2022-09-27T12:55:01.450Z,16.11
2022-09-27T12:58:00.180Z,16.15
2022-09-27T13:00:38.610Z,16.21
2022-09-27T13:03:27.311Z,16.26
2022-09-27T13:06:32.521Z,16.31
2022-09-27T13:09:02.424Z,16.38
2022-09-27T13:11:54.080Z,16.42
2022-09-27T13:14:26.134Z,16.48
2022-09-27T13:16:53.460Z,16.54
2022-09-27T13:19:43.260Z,16.58
2022-09-27T13:22:28.652Z,16.60
2022-09-27T13:24:56.397Z,16.64
2022-09-27T13:27:26.792Z,16.68
2022-09-27T13:30:16.844Z,16.73
2022-09-27T13:33:14.389Z,16.77
2022-09-27T13:35:41.705Z,16.79
2022-09-27T13:38:25.209Z,16.83
2022-09-27T13:40:53.439Z,16.83
2022-09-27T13:43:28.667Z,16.80
2022-09-27T13:45:58.837Z,16.80
2022-09-27T13:48:37.921Z,16.79
2022-09-27T13:51:18.403Z,16.81
2022-09-27T13:53:57.483Z,16.82
2022-09-27T13:56:47.039Z,16.84
2022-09-27T13:59:21.545Z,16.90
2022-09-27T14:02:30.185Z,16.94
2022-09-27T14:05:00.186Z,16.99
2022-09-27T14:07:37.440Z,17.03
2022-09-27T14:10:06.077Z,17.03
2022-09-27T14:12:37.258Z,17.04
2022-09-27T14:15:05.119Z,17.07
2022-09-27T14:17:33.383Z,17.15
2022-09-27T14:20:01.697Z,17.20
2022-09-27T14:22:28.899Z,17.25
2022-09-27T14:24:57.371Z,17.30
2022-09-27T14:27:26.735Z,17.33
2022-09-27T14:30:15.968Z,17.39
2022-09-27T14:32:50.845Z,17.44
2022-09-27T14:35:42.095Z,17.47
2022-09-27T14:38:36.415Z,17.53
2022-09-27T14:41:04.972Z,17.54
2022-09-27T14:43:35.692Z,17.57
2022-09-27T14:46:07.996Z,17.58
2022-09-27T14:48:39.393Z,17.59
2022-09-27T14:51:14.557Z,17.64
2022-09-27T14:53:51.255Z,17.67
2022-09-27T14:56:23.169Z,17.66
2022-09-27T14:58:57.319Z,17.66
2022-09-27T15:01:24.812Z,17.66
2022-09-27T15:03:53.906Z,17.66
2022-09-27T15:06:21.762Z,17.65
2022-09-27T15:08:52.737Z,17.63
2022-09-27T15:11:21.271Z,17.66
2022-09-27T15:13:53.254Z,17.66
2022-09-27T15:16:24.881Z,17.63
2022-09-27T15:19:17.672Z,17.63
2022-09-27T15:21:45.654Z,17.61
2022-09-27T15:24:36.559Z,17.61
2022-09-27T15:27:05.490Z,17.56
2022-09-27T15:29:32.709Z,17.51
2022-09-27T15:32:08.491Z,17.47
2022-09-27T15:34:37.672Z,17.45
2022-09-27T15:37:09.428Z,17.43
2022-09-27T15:39:38.283Z,17.42
2022-09-27T15:42:14.932Z,17.38
2022-09-27T15:44:52.474Z,17.36
2022-09-27T15:47:40.802Z,17.39
2022-09-27T15:50:32.875Z,17.37
2022-09-27T15:53:06.018Z,17.42
2022-09-27T15:55:35.191Z,17.43
2022-09-27T15:58:28.912Z,17.45
2022-09-27T16:00:58.802Z,17.44
2022-09-27T16:03:27.961Z,17.47
2022-09-27T16:05:59.384Z,17.47
2022-09-27T16:08:27.439Z,17.49
2022-09-27T16:10:57.022Z,17.47
2022-09-27T16:13:30.165Z,17.40
2022-09-27T16:16:00.502Z,17.32
2022-09-27T16:18:30.566Z,17.24
2022-09-27T16:20:59.196Z,17.22
2022-09-27T16:23:26.663Z,17.20
2022-09-27T16:25:54.132Z,17.18
2022-09-27T16:28:21.408Z,17.17
2022-09-27T16:30:48.536Z,17.13
2022-09-27T16:33:15.974Z,17.10
2022-09-27T16:35:43.980Z,17.08
2022-09-27T16:38:11.553Z,17.05
2022-09-27T16:40:39.073Z,17.02
2022-09-27T16:43:08.138Z,17.01
2022-09-27T16:45:37.112Z,16.99
2022-09-27T16:48:04.690Z,16.98
2022-09-27T16:50:50.343Z,16.97
2022-09-27T16:53:17.650Z,16.96
2022-09-27T16:55:44.918Z,16.94
2022-09-27T16:58:12.054Z,16.93
2022-09-27T17:00:41.046Z,16.92
2022-09-27T17:03:09.427Z,16.87
2022-09-27T17:05:36.777Z,16.88
2022-09-27T17:08:05.765Z,16.86
2022-09-27T17:10:33.236Z,16.87
2022-09-27T17:13:02.031Z,16.88
2022-09-27T17:15:29.999Z,16.83
2022-09-27T17:17:57.061Z,16.82
2022-09-27T17:20:24.206Z,16.82
2022-09-27T17:22:51.303Z,16.83
2022-09-27T17:25:19.132Z,16.77
2022-09-27T17:27:46.236Z,16.80
2022-09-27T17:30:13.285Z,16.77
2022-09-27T17:32:40.557Z,16.79
2022-09-27T17:35:09.794Z,16.77
2022-09-27T17:37:37.127Z,16.73
2022-09-27T17:40:06.128Z,16.74
2022-09-27T17:42:34.871Z,16.74
2022-09-27T17:45:02.133Z,16.73
2022-09-27T17:47:47.813Z,16.69
2022-09-27T17:50:28.930Z,16.68
2022-09-27T17:52:59.211Z,16.63
2022-09-27T17:55:28.013Z,16.67
2022-09-27T17:57:55.469Z,16.68
2022-09-27T18:00:22.659Z,16.70
2022-09-27T18:02:50.034Z,16.71
2022-09-27T18:05:21.438Z,16.74
2022-09-27T18:07:48.994Z,16.75
2022-09-27T18:10:18.272Z,16.77
2022-09-27T18:12:46.451Z,16.79
2022-09-27T18:15:13.702Z,16.79
2022-09-27T18:17:42.247Z,16.76
2022-09-27T18:20:10.167Z,16.76
2022-09-27T18:22:38.583Z,16.73
2022-09-27T18:25:06.442Z,16.71
2022-09-27T18:27:35.834Z,16.73
2022-09-27T18:30:04.365Z,16.74
2022-09-27T18:35:12.661Z,16.75
2022-09-27T18:37:42.609Z,16.80
2022-09-27T18:40:12.903Z,16.84
2022-09-27T18:42:40.436Z,16.86
2022-09-27T18:45:08.397Z,16.86
2022-09-27T18:47:35.677Z,16.87
2022-09-27T18:50:04.952Z,16.90
2022-09-27T18:52:32.424Z,16.91
2022-09-27T18:54:59.790Z,16.90
2022-09-27T18:57:33.347Z,16.93
2022-09-27T19:00:04.377Z,16.92
2022-09-27T19:02:33.863Z,16.95
2022-09-27T19:05:01.109Z,16.98
2022-09-27T19:07:28.923Z,17.01
2022-09-27T19:09:56.288Z,17.04
2022-09-27T19:12:23.248Z,17.09
2022-09-27T19:14:51.873Z,17.09
2022-09-27T19:17:18.875Z,17.11
2022-09-27T19:19:46.015Z,17.16
2022-09-27T19:22:13.006Z,17.18
2022-09-27T19:24:40.198Z,17.22
2022-09-27T19:27:07.106Z,17.21
2022-09-27T19:29:35.252Z,17.23
2022-09-27T19:32:02.641Z,17.27
2022-09-27T19:34:29.866Z,17.28
2022-09-27T19:36:57.354Z,17.30
2022-09-27T19:39:24.368Z,17.33
2022-09-27T19:41:51.423Z,17.35
2022-09-27T19:44:18.687Z,17.39
2022-09-27T19:46:46.262Z,17.40
2022-09-27T19:49:13.483Z,17.45
2022-09-27T19:51:40.730Z,17.50
2022-09-27T19:54:11.049Z,17.55
2022-09-27T19:56:38.274Z,17.61
2022-09-27T19:59:07.350Z,17.64
2022-09-27T20:01:35.067Z,17.68
2022-09-27T20:04:02.974Z,17.69
2022-09-27T20:06:30.091Z,17.73
2022-09-27T20:08:57.314Z,17.76
2022-09-27T20:11:25.099Z,17.78
2022-09-27T20:13:53.344Z,17.83
2022-09-27T20:16:23.307Z,17.85
2022-09-27T20:18:53.263Z,17.85
2022-09-27T20:21:23.368Z,17.86
2022-09-27T20:23:55.417Z,17.89
2022-09-27T20:26:25.130Z,17.90
2022-09-27T20:28:54.902Z,17.94
2022-09-27T20:31:24.591Z,17.96
2022-09-27T20:33:52.646Z,17.97
2022-09-27T20:36:25.433Z,18.00
2022-09-27T20:38:59.556Z,17.99
2022-09-27T20:41:35.356Z,18.02
2022-09-27T20:44:07.517Z,18.06
2022-09-27T20:46:36.897Z,18.08
2022-09-27T20:49:07.500Z,18.10
2022-09-27T20:51:36.673Z,18.10
2022-09-27T20:54:05.900Z,18.07
2022-09-27T20:56:39.109Z,18.01
2022-09-27T20:59:12.719Z,17.97
2022-09-27T21:01:46.542Z,17.96
2022-09-27T21:04:15.918Z,17.95
2022-09-27T21:06:44.046Z,17.89
2022-09-27T21:09:17.425Z,17.89
2022-09-27T21:11:46.633Z,17.88
2022-09-27T21:14:15.147Z,17.87
2022-09-27T21:16:43.181Z,17.84
2022-09-27T21:19:11.138Z,17.85
2022-09-27T21:21:43.952Z,17.79
2022-09-27T21:24:12.029Z,17.76
2022-09-27T21:26:39.260Z,17.70
2022-09-27T21:29:08.858Z,17.66
2022-09-27T21:31:36.840Z,17.60
2022-09-27T21:34:05.528Z,17.55
2022-09-27T21:36:35.181Z,17.54
2022-09-27T21:39:03.015Z,17.50
2022-09-27T21:41:30.179Z,17.46
2022-09-27T21:43:57.820Z,17.41
2022-09-27T21:46:29.371Z,17.39
2022-09-27T21:48:58.838Z,17.36
2022-09-27T21:51:32.036Z,17.34
2022-09-27T21:54:01.741Z,17.33
2022-09-27T21:56:32.650Z,17.30
2022-09-27T21:58:59.892Z,17.25
2022-09-27T22:01:30.053Z,17.21
2022-09-27T22:03:58.099Z,17.22
2022-09-27T22:06:27.632Z,17.17
2022-09-27T22:08:56.013Z,17.14
2022-09-27T22:11:34.704Z,17.13
2022-09-27T22:14:01.903Z,17.12
2022-09-27T22:16:30.564Z,17.11
2022-09-27T22:18:58.754Z,17.08
2022-09-27T22:21:28.805Z,17.09
2022-09-27T22:23:58.025Z,17.07
2022-09-27T22:26:27.903Z,17.05
2022-09-27T22:28:56.070Z,17.02
2022-09-27T22:31:23.924Z,17.02
2022-09-27T22:33:54.662Z,17.01
2022-09-27T22:36:22.900Z,16.98
2022-09-27T22:38:50.886Z,16.94
2022-09-27T22:41:18.146Z,16.90
2022-09-27T22:43:45.432Z,16.89
2022-09-27T22:46:13.402Z,16.89
2022-09-27T22:48:40.745Z,16.86
2022-09-27T22:51:10.648Z,16.84
2022-09-27T22:53:38.263Z,16.81
2022-09-27T22:56:25.396Z,16.78
2022-09-27T22:58:52.299Z,16.77
2022-09-27T23:01:22.090Z,16.76
2022-09-27T23:03:51.258Z,16.74
2022-09-27T23:06:19.921Z,16.71
2022-09-27T23:08:47.875Z,16.72
2022-09-27T23:11:20.082Z,16.68
2022-09-27T23:13:48.481Z,16.69
2022-09-27T23:16:20.865Z,16.65
2022-09-27T23:18:48.110Z,16.64
2022-09-27T23:21:15.893Z,16.62
2022-09-27T23:23:47.576Z,16.59
2022-09-27T23:26:16.623Z,16.54
2022-09-27T23:28:43.945Z,16.55
2022-09-27T23:31:13.970Z,16.51
2022-09-27T23:33:43.998Z,16.51
2022-09-27T23:36:15.525Z,16.48
2022-09-27T23:38:43.737Z,16.46
2022-09-27T23:41:10.575Z,16.45
2022-09-27T23:43:38.249Z,16.41
2022-09-27T23:46:06.686Z,16.40
2022-09-27T23:48:34.933Z,16.39
2022-09-27T23:51:03.017Z,16.34
2022-09-27T23:53:30.094Z,16.32
2022-09-27T23:56:06.391Z,16.32
2022-09-27T23:58:37.733Z,16.30
